createdAt,value
2017-12-02T00:03:00.451Z,48.20
2017-12-02T00:08:02.914Z,36.20
2017-12-02T00:13:04.446Z,39.00
2017-12-02T00:18:05.969Z,36.60
2017-12-02T00:23:08.145Z,36.13
2017-12-02T00:28:09.692Z,44.03
2017-12-02T00:33:11.227Z,40.60
2017-12-02T00:38:12.813Z,41.87
2017-12-02T00:43:14.341Z,38.63
2017-12-02T00:48:15.837Z,39.67
2017-12-02T00:53:17.512Z,40.43
2017-12-02T00:58:19.036Z,39.50
2017-12-02T01:03:20.541Z,38.83
2017-12-02T01:08:22.078Z,33.10
2017-12-02T01:13:23.585Z,37.73
2017-12-02T01:18:25.129Z,34.83
2017-12-02T01:23:26.649Z,34.37
2017-12-02T01:28:28.852Z,46.83
2017-12-02T01:33:30.342Z,38.17
2017-12-02T01:38:31.871Z,38.13
2017-12-02T01:43:34.112Z,39.03
2017-12-02T01:48:35.651Z,44.37
2017-12-02T01:53:37.165Z,47.73
2017-12-02T01:58:38.656Z,39.83
2017-12-02T02:03:40.925Z,39.77
2017-12-02T02:08:42.417Z,34.43
2017-12-02T02:13:43.918Z,38.27
2017-12-02T02:18:45.409Z,37.47
2017-12-02T02:23:47.133Z,37.60
2017-12-02T02:28:48.697Z,38.20
2017-12-02T02:33:50.285Z,37.13
2017-12-02T02:38:51.865Z,51.37
2017-12-02T02:43:53.420Z,45.90
2017-12-02T02:48:54.908Z,36.53
2017-12-02T02:53:56.419Z,53.13
2017-12-02T02:58:58.700Z,39.87
2017-12-02T03:04:00.977Z,40.43
2017-12-02T03:09:03.226Z,39.53
2017-12-02T03:14:04.730Z,37.50
2017-12-02T03:19:06.953Z,45.23
2017-12-02T03:24:08.473Z,42.53
2017-12-02T03:29:09.981Z,35.70
2017-12-02T03:34:11.485Z,38.53
2017-12-02T03:39:12.993Z,35.50
2017-12-02T03:44:14.553Z,34.33
2017-12-02T03:49:16.825Z,41.90
2017-12-02T03:54:19.128Z,41.10
2017-12-02T03:59:21.463Z,45.53
2017-12-02T04:04:23.036Z,40.60
2017-12-02T04:09:24.548Z,45.90
2017-12-02T04:14:26.806Z,42.40
2017-12-02T04:19:28.319Z,35.03
2017-12-02T04:24:29.838Z,39.00
2017-12-02T04:29:31.334Z,40.17
2017-12-02T04:34:32.884Z,43.17
2017-12-02T04:39:35.117Z,38.20
2017-12-02T04:44:36.744Z,42.07
2017-12-02T04:49:39.012Z,37.70
2017-12-02T04:54:40.557Z,39.60
2017-12-02T04:59:42.098Z,36.60
2017-12-02T05:04:43.609Z,42.93
2017-12-02T05:09:45.158Z,50.23
2017-12-02T05:14:46.654Z,33.10
2017-12-02T05:19:48.891Z,42.73
2017-12-02T05:24:50.612Z,37.57
2017-12-02T05:29:52.848Z,34.53
2017-12-02T05:34:54.374Z,34.70
2017-12-02T05:39:55.880Z,44.37
2017-12-02T05:44:57.372Z,37.07
2017-12-02T05:49:59.094Z,43.50
2017-12-02T05:55:00.621Z,48.17
2017-12-02T06:00:02.875Z,35.00
2017-12-02T06:05:04.341Z,42.80
2017-12-02T06:10:05.861Z,42.07
2017-12-02T06:15:07.372Z,42.87
2017-12-02T06:20:08.908Z,51.27
2017-12-02T06:25:10.381Z,51.73
2017-12-02T06:30:11.905Z,48.27
2017-12-02T06:35:13.398Z,47.77
2017-12-02T06:40:14.882Z,57.60
2017-12-02T06:45:16.425Z,51.63
2017-12-02T06:50:18.711Z,51.50
2017-12-02T06:55:20.213Z,43.27
2017-12-02T07:00:21.776Z,53.83
2017-12-02T07:05:23.264Z,48.43
2017-12-02T07:10:24.831Z,53.17
2017-12-02T07:15:26.301Z,44.23
2017-12-02T07:20:27.840Z,42.67
2017-12-02T07:25:29.372Z,48.03
2017-12-02T07:30:31.613Z,44.40
2017-12-02T07:35:33.116Z,50.93
2017-12-02T07:40:35.375Z,52.80
2017-12-02T07:45:36.945Z,62.70
2017-12-02T07:50:38.449Z,87.13
2017-12-02T07:55:39.986Z,95.07
2017-12-02T08:00:41.501Z,90.00
2017-12-02T08:05:43.058Z,81.03
2017-12-02T08:10:44.600Z,97.70
2017-12-02T08:15:46.830Z,85.20
2017-12-02T08:20:48.360Z,78.30
2017-12-02T08:25:50.644Z,91.20
2017-12-02T08:30:52.973Z,79.53
2017-12-02T08:35:54.548Z,76.87
2017-12-02T08:41:03.338Z,76.77
2017-12-02T08:46:05.582Z,74.50
2017-12-02T08:51:07.146Z,77.60
2017-12-02T08:56:08.666Z,78.20
2017-12-02T09:01:10.197Z,73.97
2017-12-02T09:06:11.721Z,65.70
2017-12-02T09:11:13.260Z,74.77
2017-12-02T09:16:15.576Z,67.30
2017-12-02T09:21:17.128Z,72.40
2017-12-02T09:26:18.673Z,88.90
2017-12-02T09:31:20.917Z,77.17
2017-12-02T09:36:22.582Z,82.83
2017-12-02T09:41:24.123Z,75.07
2017-12-02T09:46:25.655Z,82.30
2017-12-02T09:51:27.970Z,88.13
2017-12-02T09:56:29.527Z,81.77
2017-12-02T10:01:31.012Z,84.07
2017-12-02T10:06:32.574Z,100.03
2017-12-02T10:11:34.138Z,130.13
2017-12-02T10:16:35.794Z,118.53
2017-12-02T10:21:37.321Z,104.50
2017-12-02T10:26:38.955Z,102.67
2017-12-02T10:31:41.141Z,119.83
2017-12-02T10:36:42.652Z,108.63
2017-12-02T10:41:44.155Z,91.37
2017-12-02T10:46:45.896Z,116.83
2017-12-02T10:51:48.107Z,87.07
2017-12-02T10:56:49.580Z,89.73
2017-12-02T11:01:51.176Z,96.43
2017-12-02T11:06:52.651Z,82.97
2017-12-02T11:11:54.220Z,77.90
2017-12-02T11:16:55.741Z,87.90
2017-12-02T11:21:57.331Z,88.40
2017-12-02T11:26:58.902Z,89.10
2017-12-02T11:32:01.276Z,75.50
2017-12-02T11:37:02.853Z,81.33
2017-12-02T11:42:04.436Z,84.03
2017-12-02T11:47:06.153Z,77.43
2017-12-02T11:52:08.429Z,86.53
2017-12-02T11:57:10.697Z,89.73
2017-12-02T12:02:12.279Z,78.03
2017-12-02T12:07:13.842Z,86.80
2017-12-02T12:12:15.357Z,90.33
2017-12-02T12:17:16.919Z,73.93
2017-12-02T12:22:18.565Z,76.87
2017-12-02T12:27:20.804Z,73.30
2017-12-02T12:32:22.398Z,81.43
2017-12-02T12:37:23.968Z,73.27
2017-12-02T12:42:25.501Z,77.13
2017-12-02T12:47:27.042Z,87.90
2017-12-02T12:52:28.588Z,73.63
2017-12-02T12:57:30.878Z,95.53
2017-12-02T13:02:33.148Z,78.77
2017-12-02T13:07:35.415Z,76.37
2017-12-02T13:12:36.924Z,73.00
2017-12-02T13:17:38.459Z,71.40
2017-12-02T13:22:39.993Z,66.57
2017-12-02T13:27:41.561Z,74.63
2017-12-02T13:32:43.070Z,61.80
2017-12-02T13:37:45.318Z,72.43
2017-12-02T13:42:46.820Z,77.93
2017-12-02T13:47:49.062Z,70.93
2017-12-02T13:52:50.586Z,69.63
2017-12-02T13:57:52.911Z,77.07
2017-12-02T14:02:54.458Z,68.93
2017-12-02T14:07:55.995Z,61.47
2017-12-02T14:12:58.256Z,66.20
2017-12-02T14:17:59.781Z,65.13
2017-12-02T14:23:01.293Z,58.00
2017-12-02T14:28:02.850Z,60.53
2017-12-02T14:33:04.316Z,53.87
2017-12-02T14:38:05.802Z,44.50
2017-12-02T14:43:07.380Z,54.37
2017-12-02T14:48:09.571Z,69.03
2017-12-02T14:53:11.829Z,59.43
2017-12-02T14:58:13.418Z,58.53
2017-12-02T15:03:15.686Z,63.70
2017-12-02T15:08:17.201Z,58.60
2017-12-02T15:13:18.721Z,62.00
2017-12-02T15:18:20.226Z,73.43
2017-12-02T15:23:21.770Z,69.67
2017-12-02T15:28:24.081Z,64.10
2017-12-02T15:33:25.649Z,67.03
2017-12-02T15:38:27.150Z,55.60
2017-12-02T15:43:28.676Z,62.13
2017-12-02T15:48:30.215Z,75.57
2017-12-02T15:53:32.668Z,75.07
2017-12-02T15:58:34.271Z,80.47
2017-12-02T16:03:35.832Z,88.10
2017-12-02T16:08:37.344Z,115.53
2017-12-02T16:13:38.887Z,76.67
2017-12-02T16:18:41.281Z,68.87
2017-12-02T16:23:43.573Z,73.37
2017-12-02T16:28:45.166Z,75.90
2017-12-02T16:33:46.694Z,76.83
2017-12-02T16:38:49.033Z,76.57
2017-12-02T16:43:50.558Z,66.77
2017-12-02T16:48:52.845Z,70.33
2017-12-02T16:53:54.476Z,76.70
2017-12-02T16:58:56.090Z,77.33
2017-12-02T17:03:57.727Z,63.57
2017-12-02T17:08:59.273Z,87.87
2017-12-02T17:14:00.776Z,75.47
2017-12-02T17:19:03.084Z,75.90
2017-12-02T17:24:04.670Z,78.20
2017-12-02T17:29:06.266Z,65.83
2017-12-02T17:34:07.792Z,70.80
2017-12-02T17:39:09.399Z,70.43
2017-12-02T17:44:10.951Z,74.23
2017-12-02T17:49:12.511Z,72.00
2017-12-02T17:54:14.149Z,73.13
2017-12-02T17:59:15.732Z,76.67
2017-12-02T18:04:17.338Z,84.50
2017-12-02T18:09:18.898Z,80.47
2017-12-02T18:14:20.380Z,98.80
2017-12-02T18:19:21.973Z,89.10
2017-12-02T18:24:24.346Z,102.37
2017-12-02T18:29:26.726Z,93.43
2017-12-02T18:34:28.237Z,82.37
2017-12-02T18:39:29.820Z,86.33
2017-12-02T18:44:31.471Z,83.87
2017-12-02T18:49:33.396Z,81.83
2017-12-02T18:54:34.944Z,91.73
2017-12-02T18:59:36.470Z,78.33
2017-12-02T19:04:38.716Z,89.23
2017-12-02T19:09:40.311Z,82.93
2017-12-02T19:14:42.726Z,85.17
2017-12-02T19:19:44.294Z,80.10
2017-12-02T19:24:45.868Z,82.83
2017-12-02T19:29:47.380Z,80.07
2017-12-02T19:34:48.985Z,72.13
2017-12-02T19:39:50.529Z,78.53
2017-12-02T19:44:52.101Z,78.83
2017-12-02T19:49:54.400Z,86.30
2017-12-02T19:54:56.686Z,76.13
2017-12-02T19:59:59.134Z,77.87
2017-12-02T20:05:00.748Z,73.87
2017-12-02T20:10:03.059Z,77.03
2017-12-02T20:15:04.597Z,85.80
2017-12-02T20:20:06.170Z,90.37
2017-12-02T20:25:08.391Z,71.40
2017-12-02T20:30:09.994Z,79.50
2017-12-02T20:35:11.722Z,75.97
2017-12-02T20:40:13.245Z,70.13
2017-12-02T20:45:14.816Z,74.33
2017-12-02T20:50:17.124Z,72.57
2017-12-02T20:55:18.739Z,72.63
2017-12-02T21:00:20.401Z,78.17
2017-12-02T21:05:21.919Z,69.10
2017-12-02T21:10:24.342Z,69.13
2017-12-02T21:15:25.893Z,79.17
2017-12-02T21:20:27.355Z,67.87
2017-12-02T21:25:28.857Z,65.90
2017-12-02T21:30:30.516Z,74.87
2017-12-02T21:35:32.122Z,73.00
2017-12-02T21:40:34.453Z,67.30
2017-12-02T21:45:36.156Z,105.93
2017-12-02T21:50:37.799Z,64.17
2017-12-02T21:55:39.572Z,71.20
2017-12-02T22:00:41.218Z,78.40
2017-12-02T22:05:42.858Z,70.00
2017-12-02T22:10:44.470Z,70.97
2017-12-02T22:15:45.984Z,80.53
2017-12-02T22:20:47.505Z,97.83
2017-12-02T22:25:49.249Z,75.37
2017-12-02T22:30:51.679Z,67.67
2017-12-02T22:35:53.244Z,77.90
2017-12-02T22:40:54.808Z,67.73
2017-12-02T22:45:56.283Z,71.83
2017-12-02T22:50:57.903Z,69.43
2017-12-02T22:55:59.397Z,74.87
2017-12-02T23:01:00.899Z,71.77
2017-12-02T23:06:02.430Z,72.77
2017-12-02T23:11:04.747Z,65.53
2017-12-02T23:16:06.266Z,68.50
2017-12-02T23:21:08.541Z,63.97
2017-12-02T23:26:10.050Z,73.13
2017-12-02T23:31:11.546Z,58.93
2017-12-02T23:36:13.108Z,73.83
2017-12-02T23:41:14.597Z,57.17
2017-12-02T23:46:16.151Z,67.07
2017-12-02T23:51:17.757Z,70.30
2017-12-02T23:56:20.062Z,68.77
